Airfield :
LOGIN :

Register | Disclaimer

   EN    FR    IT 

 










Legend :    VFR   Marginal VFR   IFR   Intensive IFR   Very Intensive IFR
Visi :
Ceiling :
>= 8 km
>= 3000ft
5 to 8 km
1000 to 3000 ft
1500m to 5 km
500 to 1000 ft
800 to 1500m
200 to 500 ft
< 800m
< 200 ft
Symbols :   Thunderstorms  Fog  Heavy snow  Heavy precipitations  Wind > 20 kt
SIGMETs :     Misc.  Thunderstorms  Icing  Turbulence  Mountain Waves  Volcanic Ashes







- Airport Elevation : 863 ft
- IATA code : ZAZ


LEZG - Zaragoza Aragon

CURRENT METAR :
  • 231730Z 11004KT 9000 FEW070 11/06 Q1018

EXPIRED METARs :
  • 231700Z 11004KT 080V140 9000 FEW070 12/05 Q1017
  • 231630Z 07002KT 9999 FEW050 13/05 Q1017
  • 231600Z 11004KT 9999 FEW050 14/04 Q1017
  • 231530Z 08004KT 9999 FEW050 16/03 Q1017
  • 231500Z 09006KT 060V120 9999 FEW050 16/02 Q1016

TAF TAF LEZG
Valid from the 23 at 18:00 until the 24 at 18:00 UTC


231700Z 2318/2418 10008KT 9999 FEW030 TX19/2414Z TN07/2406Z
No reported NOTAMs for that airfield.



MET'MAP, your aeronautical weather chart ! - Copyright ORBIFLY December 2007 - Disclaimer

ORBIFLY MET'MAP TEAM :

Programming & Development : Alexandra Zaïnal
Concept & Development : Baudouin d'Aumeries
Co-Development & Prog : Marc-Olivier Méhu
Technical & hardware support : Manuel Goepfert

Contact : metmap@orbifly.com




SOURCES & CREDITS :

   NOAA